aviador You're here:

PHNY Decoded Metar

LANAI in HI, USA LANAI ISL.
Report Time2018-04-26 12:56:00
UTC Time2018-04-26 13:17:22
Flight Rules vfr VFR
Wind030° at 13 kt
W.Decomp.*RWY 03: 12.8 kt HW 2.5 kt LCW
W.Rank030° ranks 3
Current wind is above 030° avg. (11.1)
Visibility9999 m
Phenomena:N/A
Clouds:N/A
Expected CloudBase > 400 ft AGL from Temp-Dew spread
CeilingNone
Temp19°C (ISA +7)
Dew Point18°C (94% RH)
AAT17.1°C
QNH1018 hPa
Density Alt2,192 ft
Elevation1,309 ft
Report Wrong Elevation
Raw Report
PHNY 261256Z AUTO 03013KT 10SM CLR 19/18 A3007 RMK AO2 SLP164
T01940178=

Extra information for PHNY:More info

Metar Taf Metar & Taf Last 4 Metars F.Rules Stats Wind Profile Meteogram Temp Stats Airport Information Weather charts Add Link Nearby VenuesMetar ALERT Operation Metar Decoded Social comments